Nearby METAR Reports

 

KDPA - Chicago/Dupage, Illinois, USA
Distance from station: ESE 9mi, 15km
Updated: Sat, 22-Sep-2018 1:52am CDT
Clear
Clear
 Wind from N
Wind: N 12 mph , 19 km/h
Temperature: 52°F , 11°C
Dew Point: 43°F , 6°C
Humidity: 72%
Barometer: 30.29 inHg , 1025.7 hPa
Clouds: Clear
Visibility: 10 miles , 16 km
2018/09/22 06:52 KDPA 220652Z 36010KT 10SM CLR 11/06 A3029 RMK AO2 SLP254 T01110056
KARR - Chicago/Aurora, Illinois, USA
Distance from station: SSW 14mi, 22km
Updated: Sat, 22-Sep-2018 1:52am CDT
Clear
Clear
 Wind from N
Wind: N 9 mph , 15 km/h
Temperature: 52°F , 11°C
Dew Point: 45°F , 7°C
Humidity: 77%
Barometer: 30.29 inHg , 1025.7 hPa
Clouds: Clear
Visibility: 10 miles , 16 km
2018/09/22 06:52 KARR 220652Z AUTO 36008KT 10SM CLR 11/07 A3029 RMK AO2 SLP256 T01110067
 
KDKB - De Kalb, Illinois, USA
Distance from station: W 14mi, 23km
Updated: Sat, 22-Sep-2018 1:55am CDT
Clear
Clear
 Wind from NNE
Wind: NNE 7 mph , 11 km/h
Temperature: 50°F , 10°C
Wind Chill: 47°F , 8°C
Dew Point: 45°F , 7°C
Humidity: 82%
Barometer: 30.31 inHg , 1026.4 hPa
Clouds: Clear
Visibility: 10 miles , 16 km
2018/09/22 06:55 KDKB 220655Z AUTO 02006KT 10SM CLR 10/07 A3031 RMK AO2 T01000065
KORD - Chicago O'hare, Illinois, USA
Distance from station: E 25mi, 41km
Updated: Sat, 22-Sep-2018 1:51am CDT
Overcast
Overcast
 Wind from N
Wind: N 12 mph , 19 km/h
Temperature: 55°F , 13°C
Dew Point: 43°F , 6°C
Humidity: 63%
Barometer: 30.28 inHg , 1025.4 hPa
Clouds: Overcast
Visibility: 10 miles , 16 km
Cloud details: Mostly cloudy 3800 ft
Overcast 25000 ft
2018/09/22 06:51 KORD 220651Z 36010KT 10SM BKN038 OVC250 13/06 A3028 RMK AO2 SLP252 T01280061
 
KPWK - Palwaukee, Illinois, USA
Distance from station: ENE 29mi, 47km
Updated: Sat, 22-Sep-2018 1:52am CDT
Overcast
Overcast
 Wind from N
Wind: N 10 mph , 17 km/h
Temperature: 55°F , 13°C
Dew Point: 43°F , 6°C
Humidity: 63%
Barometer: 30.30 inHg , 1026.1 hPa
Clouds: Overcast
Visibility: 10 miles , 16 km
Cloud details: Overcast 3900 ft
2018/09/22 06:52 KPWK 220652Z AUTO 35009KT 10SM OVC039 13/06 A3030 RMK AO2 SLP260 T01280056
KLOT - Romeoville/Chi, Illinois, USA
Distance from station: SE 30mi, 48km
Updated: Sat, 22-Sep-2018 1:55am CDT
Clear
Clear
 Wind from N
Wind: N 8 mph , 13 km/h
Temperature: 54°F , 12°C
Dew Point: 45°F , 7°C
Humidity: 72%
Barometer: 30.28 inHg , 1025.4 hPa
Clouds: Clear
Visibility: 10 miles , 16 km
2018/09/22 06:55 KLOT 220655Z AUTO 01007KT 10SM CLR 12/07 A3028 RMK AO2 T01200065
 
KJOT - Joliet, Illinois, USA
Distance from station: SSE 33mi, 53km
Updated: Sat, 22-Sep-2018 1:55am CDT
Clear
Clear
 Wind from N
Wind: N 7 mph , 11 km/h
Temperature: 55°F , 13°C
Dew Point: 45°F , 7°C
Humidity: 67%
Barometer: 30.28 inHg , 1025.4 hPa
Clouds: Clear
Visibility: 10 miles , 16 km
2018/09/22 06:55 KJOT 220655Z AUTO 36006KT 10SM CLR 13/07 A3028 RMK AO2 T01310070
KRPJ - Rochelle/Koritz, Illinois, USA
Distance from station: W 34mi, 55km
Updated: Sat, 22-Sep-2018 1:55am CDT
Clear
Clear
 Wind from NNE
Wind: NNE 12 mph , 19 km/h
Temperature: 50°F , 10°C
Wind Chill: 45°F , 7°C
Dew Point: 43°F , 6°C
Humidity: 76%
Barometer: 30.31 inHg , 1026.4 hPa
Clouds: Clear
Visibility: 10 miles , 16 km
2018/09/22 06:55 KRPJ 220655Z AUTO 03010KT 10SM CLR 10/06 A3031 RMK AO2 T01010062
 
KC09 - Morris-Washburn, Illinois, USA
Distance from station: S 36mi, 59km
Updated: Sat, 22-Sep-2018 1:55am CDT
Clear
Clear
 Wind from calm
Wind: Calm
Temperature: 52°F , 11°C
Dew Point: 45°F , 7°C
Humidity: 77%
Barometer: 30.27 inHg , 1025.1 hPa
Clouds: Clear
Visibility: 10 miles , 16 km
2018/09/22 06:55 KC09 220655Z AUTO 00000KT 10SM CLR 11/07 A3027 RMK AO2 T01140065
KMDW - Chicago, Illinois, USA
Distance from station: ESE 37mi, 59km
Updated: Sat, 22-Sep-2018 1:53am CDT
Overcast
Overcast
 Wind from NNE
Wind: NNE 16 mph , 26 km/h, Gust: 22 mph , 35 km/h
Temperature: 59°F , 15°C
Dew Point: 45°F , 7°C
Humidity: 59%
Barometer: 30.27 inHg , 1025.1 hPa
Clouds: Overcast
Visibility: 10 miles , 16 km
Cloud details: Mostly cloudy 3900 ft
Overcast 25000 ft
2018/09/22 06:53 KMDW 220653Z 02014G19KT 10SM BKN039 OVC250 15/07 A3027 RMK AO2 SLP245 T01500072
 
KRFD - Rockford, Illinois, USA
Distance from station: WNW 38mi, 62km
Updated: Sat, 22-Sep-2018 1:54am CDT
Overcast
Overcast
 Wind from NE
Wind: NE 12 mph , 19 km/h
Temperature: 50°F , 10°C
Wind Chill: 45°F , 7°C
Dew Point: 41°F , 5°C
Humidity: 71%
Barometer: 30.33 inHg , 1027.1 hPa
Clouds: Overcast
Visibility: 10 miles , 16 km
Cloud details: Overcast 25000 ft
2018/09/22 06:54 KRFD 220654Z 04010KT 10SM OVC250 10/05 A3033 RMK AO2 SLP272 T01000050
KUGN - Waukegan, Illinois, USA
Distance from station: NE 42mi, 68km
Updated: Sat, 22-Sep-2018 1:55am CDT
Partly cloudy
Partly cloudy
 Wind from NNW
Wind: NNW 6 mph , 9 km/h
Temperature: 50°F , 10°C
Wind Chill: 48°F , 9°C
Dew Point: 41°F , 5°C
Humidity: 71%
Barometer: 30.29 inHg , 1025.7 hPa
Clouds: Partly cloudy
Visibility: 10 miles , 16 km
Cloud details: Partly cloudy 3700 ft
2018/09/22 06:55 KUGN 220655Z AUTO 34005KT 10SM SCT037 10/05 A3029 RMK AO2 SLP255 T01000050
 
KBUU - Burlington, Wisconsin, USA
Distance from station: N 50mi, 81km
Updated: Sat, 22-Sep-2018 1:35am CDT
Clear
Clear
 Wind from NNE
Wind: NNE 3 mph , 6 km/h
Temperature: 48°F , 9°C
Dew Point: 39°F , 4°C
Humidity: 71%
Barometer: 30.31 inHg , 1026.4 hPa
Clouds: Clear
Visibility: 10 miles , 16 km
2018/09/22 06:35 KBUU 220635Z AUTO 02003KT 10SM CLR 09/04 A3031 RMK AO2 T00850043